sensor_id;sensor_type;location;lat;lon;timestamp;pressure;altitude;pressure_sealevel;temperature;humidity
55858;BME280;41779;52.360;31.026;2022-12-18T00:04:38;1025.2;;;0.9;63.8
55858;BME280;41779;52.360;31.026;2022-12-18T00:09:36;1025.2;;;0.8;64
55858;BME280;41779;52.360;31.026;2022-12-18T00:14:46;1025.3;;;0.8;63.9
55858;BME280;41779;52.360;31.026;2022-12-18T00:19:26;1025.4;;;0.7;64.1
55858;BME280;41779;52.360;31.026;2022-12-18T00:24:50;1025.5;;;0.6;64.2
55858;BME280;41779;52.360;31.026;2022-12-18T00:29:38;1025.5;;;0.6;64.1
55858;BME280;41779;52.360;31.026;2022-12-18T00:34:26;1025.3;;;0.7;64
55858;BME280;41779;52.360;31.026;2022-12-18T00:39:36;1025.2;;;0.8;64
55858;BME280;41779;52.360;31.026;2022-12-18T00:44:38;1025.3;;;0.8;63.8
55858;BME280;41779;52.360;31.026;2022-12-18T00:49:26;1025.3;;;0.8;63.4
55858;BME280;41779;52.360;31.026;2022-12-18T00:54:26;1025.5;;;0.8;63.1
55858;BME280;41779;52.360;31.026;2022-12-18T00:59:36;1025.5;;;0.8;63.1
55858;BME280;41779;52.360;31.026;2022-12-18T01:04:26;1025.6;;;0.9;63
55858;BME280;41779;52.360;31.026;2022-12-18T01:09:34;1025.8;;;0.9;62.8
55858;BME280;41779;52.360;31.026;2022-12-18T01:14:36;1025.9;;;0.8;62.8
55858;BME280;41779;52.360;31.026;2022-12-18T01:19:42;1025.7;;;0.8;63
55858;BME280;41779;52.360;31.026;2022-12-18T01:24:30;1025.9;;;0.8;62.8
55858;BME280;41779;52.360;31.026;2022-12-18T01:29:30;1026.1;;;0.8;62.7
55858;BME280;41779;52.360;31.026;2022-12-18T01:34:40;1026.2;;;0.8;62.6
55858;BME280;41779;52.360;31.026;2022-12-18T01:39:30;1026.2;;;0.7;62.7
55858;BME280;41779;52.360;31.026;2022-12-18T01:44:51;1026.3;;;0.6;62.8
55858;BME280;41779;52.360;31.026;2022-12-18T01:49:38;1026.4;;;0.6;62.9
55858;BME280;41779;52.360;31.026;2022-12-18T01:54:52;1026.5;;;0.6;62.8
55858;BME280;41779;52.360;31.026;2022-12-18T01:59:28;1026.5;;;0.6;63.1
55858;BME280;41779;52.360;31.026;2022-12-18T02:04:52;1026.6;;;0.7;62.7
55858;BME280;41779;52.360;31.026;2022-12-18T02:09:41;1026.7;;;0.7;62.7
55858;BME280;41779;52.360;31.026;2022-12-18T02:14:41;1026.8;;;0.7;62.8
55858;BME280;41779;52.360;31.026;2022-12-18T02:19:37;1026.8;;;0.7;62.9
55858;BME280;41779;52.360;31.026;2022-12-18T02:24:54;1026.8;;;0.7;62.6
55858;BME280;41779;52.360;31.026;2022-12-18T02:29:43;1026.8;;;0.7;62.3
55858;BME280;41779;52.360;31.026;2022-12-18T02:34:42;1026.8;;;0.7;62.4
55858;BME280;41779;52.360;31.026;2022-12-18T02:39:30;1026.8;;;0.6;62.4
55858;BME280;41779;52.360;31.026;2022-12-18T02:44:30;1026.9;;;0.6;62.3
55858;BME280;41779;52.360;31.026;2022-12-18T02:49:31;1027;;;0.5;62.5
55858;BME280;41779;52.360;31.026;2022-12-18T02:54:35;1027.1;;;0.5;62.4
55858;BME280;41779;52.360;31.026;2022-12-18T02:59:55;1027.2;;;0.6;62.2
55858;BME280;41779;52.360;31.026;2022-12-18T03:04:32;1027.3;;;0.5;62.2
55858;BME280;41779;52.360;31.026;2022-12-18T03:09:41;1027.4;;;0.4;62.4
55858;BME280;41779;52.360;31.026;2022-12-18T03:14:30;1027.5;;;0.4;62.2
55858;BME280;41779;52.360;31.026;2022-12-18T03:19:31;1027.5;;;0.3;62.3
55858;BME280;41779;52.360;31.026;2022-12-18T03:24:30;1027.5;;;0.3;62.5
55858;BME280;41779;52.360;31.026;2022-12-18T03:29:31;1027.6;;;0.3;62.4
55858;BME280;41779;52.360;31.026;2022-12-18T03:34:32;1027.6;;;0.3;62.2
55858;BME280;41779;52.360;31.026;2022-12-18T03:39:40;1027.7;;;0.2;62.2
55858;BME280;41779;52.360;31.026;2022-12-18T03:44:42;1027.7;;;0.2;62.3
55858;BME280;41779;52.360;31.026;2022-12-18T03:49:42;1027.7;;;0.1;62.4
55858;BME280;41779;52.360;31.026;2022-12-18T03:54:31;1027.8;;;0.1;62.8
55858;BME280;41779;52.360;31.026;2022-12-18T03:59:30;1027.9;;;0.1;62.6
55858;BME280;41779;52.360;31.026;2022-12-18T04:04:30;1028;;;0.1;62.6
55858;BME280;41779;52.360;31.026;2022-12-18T04:09:55;1028.1;;;0.1;62.4
55858;BME280;41779;52.360;31.026;2022-12-18T04:14:40;1028.2;;;0.1;62.4
55858;BME280;41779;52.360;31.026;2022-12-18T04:19:30;1028.3;;;0.1;62.4
55858;BME280;41779;52.360;31.026;2022-12-18T04:24:40;1028.4;;;0.1;62.5
55858;BME280;41779;52.360;31.026;2022-12-18T04:29:40;1028.5;;;0;62.5
55858;BME280;41779;52.360;31.026;2022-12-18T04:34:40;1028.6;;;0;62.3
55858;BME280;41779;52.360;31.026;2022-12-18T04:39:50;1028.7;;;0;62.3
55858;BME280;41779;52.360;31.026;2022-12-18T04:44:30;1028.8;;;0;62.2
55858;BME280;41779;52.360;31.026;2022-12-18T04:49:42;1028.9;;;-0.1;62.1
55858;BME280;41779;52.360;31.026;2022-12-18T04:54:40;1029;;;-0.1;61.9
55858;BME280;41779;52.360;31.026;2022-12-18T04:59:52;1029.1;;;-0.1;61.8
55858;BME280;41779;52.360;31.026;2022-12-18T05:04:52;1029.2;;;-0.2;61.8
55858;BME280;41779;52.360;31.026;2022-12-18T05:09:30;1029.3;;;-0.2;61.7
55858;BME280;41779;52.360;31.026;2022-12-18T05:14:30;1029.4;;;-0.2;61.6
55858;BME280;41779;52.360;31.026;2022-12-18T05:19:30;1029.4;;;-0.3;61.7
55858;BME280;41779;52.360;31.026;2022-12-18T05:24:30;1029.5;;;-0.3;61.8
55858;BME280;41779;52.360;31.026;2022-12-18T05:30:16;1029.7;;;-0.3;61.8
55858;BME280;41779;52.360;31.026;2022-12-18T05:34:50;1029.7;;;-0.3;61.8
55858;BME280;41779;52.360;31.026;2022-12-18T05:40:12;1029.9;;;-0.4;61.7
55858;BME280;41779;52.360;31.026;2022-12-18T05:44:30;1029.9;;;-0.4;61.7
55858;BME280;41779;52.360;31.026;2022-12-18T05:49:30;1030;;;-0.5;62
55858;BME280;41779;52.360;31.026;2022-12-18T05:54:40;1030.1;;;-0.5;62
55858;BME280;41779;52.360;31.026;2022-12-18T05:59:41;1030.2;;;-0.5;62
55858;BME280;41779;52.360;31.026;2022-12-18T06:04:40;1030.3;;;-0.5;61.9
55858;BME280;41779;52.360;31.026;2022-12-18T06:09:40;1030.4;;;-0.5;62
55858;BME280;41779;52.360;31.026;2022-12-18T06:14:30;1030.5;;;-0.5;61.9
55858;BME280;41779;52.360;31.026;2022-12-18T06:19:30;1030.6;;;-0.5;62.2
55858;BME280;41779;52.360;31.026;2022-12-18T06:24:40;1030.6;;;-0.5;62.3
55858;BME280;41779;52.360;31.026;2022-12-18T06:30:14;1030.8;;;-0.5;62.4
55858;BME280;41779;52.360;31.026;2022-12-18T06:35:07;1030.8;;;-0.5;62.4
55858;BME280;41779;52.360;31.026;2022-12-18T06:40:02;1030.9;;;-0.6;62.7
55858;BME280;41779;52.360;31.026;2022-12-18T06:44:40;1031.1;;;-0.5;62.6
55858;BME280;41779;52.360;31.026;2022-12-18T06:49:40;1031.1;;;-0.4;62.1
55858;BME280;41779;52.360;31.026;2022-12-18T06:54:40;1031.2;;;-0.4;61.8
55858;BME280;41779;52.360;31.026;2022-12-18T06:59:30;1031.2;;;-0.4;61.7
55858;BME280;41779;52.360;31.026;2022-12-18T07:04:42;1031.4;;;-0.4;61.5
55858;BME280;41779;52.360;31.026;2022-12-18T07:09:30;1031.5;;;-0.3;61.5
55858;BME280;41779;52.360;31.026;2022-12-18T07:14:40;1031.6;;;-0.3;61.6
55858;BME280;41779;52.360;31.026;2022-12-18T07:19:30;1031.7;;;-0.2;61.4
55858;BME280;41779;52.360;31.026;2022-12-18T07:24:42;1031.8;;;-0.2;61.5
55858;BME280;41779;52.360;31.026;2022-12-18T07:29:30;1031.8;;;-0.1;61.2
55858;BME280;41779;52.360;31.026;2022-12-18T07:34:50;1031.9;;;-0.1;61.1
55858;BME280;41779;52.360;31.026;2022-12-18T07:39:50;1032.1;;;-0.1;61.4
55858;BME280;41779;52.360;31.026;2022-12-18T07:44:30;1032.2;;;-0.1;61.5
55858;BME280;41779;52.360;31.026;2022-12-18T07:49:30;1032.3;;;-0.1;61.3
55858;BME280;41779;52.360;31.026;2022-12-18T07:54:44;1032.4;;;-0.1;61.3
55858;BME280;41779;52.360;31.026;2022-12-18T07:59:30;1032.4;;;0;61.1
55858;BME280;41779;52.360;31.026;2022-12-18T08:04:30;1032.5;;;0;61.1
55858;BME280;41779;52.360;31.026;2022-12-18T08:09:44;1032.6;;;0.1;60.9
55858;BME280;41779;52.360;31.026;2022-12-18T08:14:54;1032.8;;;0.1;60.8
55858;BME280;41779;52.360;31.026;2022-12-18T08:19:54;1032.9;;;0.1;60.5
55858;BME280;41779;52.360;31.026;2022-12-18T08:24:30;1032.9;;;0.1;60.1
55858;BME280;41779;52.360;31.026;2022-12-18T08:29:30;1033;;;0.1;59.8
55858;BME280;41779;52.360;31.026;2022-12-18T08:34:40;1033;;;0;60.2
55858;BME280;41779;52.360;31.026;2022-12-18T08:39:38;1033.1;;;-0.1;60.3
55858;BME280;41779;52.360;31.026;2022-12-18T08:44:30;1033.2;;;-0.2;60.6
55858;BME280;41779;52.360;31.026;2022-12-18T08:49:30;1033.4;;;-0.2;60.8
55858;BME280;41779;52.360;31.026;2022-12-18T08:54:40;1033.4;;;-0.2;60.7
55858;BME280;41779;52.360;31.026;2022-12-18T08:59:30;1033.4;;;-0.2;60.6
55858;BME280;41779;52.360;31.026;2022-12-18T09:04:30;1033.5;;;-0.3;60.6
55858;BME280;41779;52.360;31.026;2022-12-18T09:09:40;1033.6;;;-0.4;60.9
55858;BME280;41779;52.360;31.026;2022-12-18T09:14:40;1033.7;;;-0.4;61.1
55858;BME280;41779;52.360;31.026;2022-12-18T09:19:30;1033.7;;;-0.4;61.1
55858;BME280;41779;52.360;31.026;2022-12-18T09:24:30;1033.7;;;-0.4;61.3
55858;BME280;41779;52.360;31.026;2022-12-18T09:29:31;1033.6;;;-0.4;61.4
55858;BME280;41779;52.360;31.026;2022-12-18T09:34:44;1033.7;;;-0.3;61.3
55858;BME280;41779;52.360;31.026;2022-12-18T09:39:38;1033.9;;;-0.3;61.2
55858;BME280;41779;52.360;31.026;2022-12-18T09:44:29;1034;;;-0.3;61.2
55858;BME280;41779;52.360;31.026;2022-12-18T09:49:29;1034.1;;;-0.4;61.3
55858;BME280;41779;52.360;31.026;2022-12-18T09:54:53;1034.2;;;-0.4;61.3
55858;BME280;41779;52.360;31.026;2022-12-18T09:59:30;1034.3;;;-0.3;61.3
55858;BME280;41779;52.360;31.026;2022-12-18T10:04:28;1034.4;;;-0.3;61.2
55858;BME280;41779;52.360;31.026;2022-12-18T10:09:30;1034.5;;;-0.3;60.9
55858;BME280;41779;52.360;31.026;2022-12-18T10:14:41;1034.5;;;-0.3;60.8
55858;BME280;41779;52.360;31.026;2022-12-18T10:19:33;1034.5;;;-0.3;60.6
55858;BME280;41779;52.360;31.026;2022-12-18T10:24:42;1034.5;;;-0.2;60.3
55858;BME280;41779;52.360;31.026;2022-12-18T10:29:38;1034.6;;;-0.2;60.1
55858;BME280;41779;52.360;31.026;2022-12-18T10:34:49;1034.6;;;-0.2;60.1
55858;BME280;41779;52.360;31.026;2022-12-18T10:39:38;1034.8;;;-0.3;60
55858;BME280;41779;52.360;31.026;2022-12-18T10:44:38;1035;;;-0.4;60.3
55858;BME280;41779;52.360;31.026;2022-12-18T10:49:29;1035;;;-0.3;60.6
55858;BME280;41779;52.360;31.026;2022-12-18T10:54:36;1035;;;-0.3;60.5
55858;BME280;41779;52.360;31.026;2022-12-18T10:59:28;1035;;;-0.4;60.3
55858;BME280;41779;52.360;31.026;2022-12-18T11:04:29;1035.2;;;-0.4;60.4
55858;BME280;41779;52.360;31.026;2022-12-18T11:09:37;1035.2;;;-0.4;60.1
55858;BME280;41779;52.360;31.026;2022-12-18T11:14:42;1035.2;;;-0.4;60
55858;BME280;41779;52.360;31.026;2022-12-18T11:19:31;1035.3;;;-0.5;60.1
55858;BME280;41779;52.360;31.026;2022-12-18T11:24:29;1035.4;;;-0.5;60.2
55858;BME280;41779;52.360;31.026;2022-12-18T11:29:40;1035.5;;;-0.6;60.5
55858;BME280;41779;52.360;31.026;2022-12-18T11:34:38;1035.5;;;-0.6;60.4
55858;BME280;41779;52.360;31.026;2022-12-18T11:39:40;1035.7;;;-0.7;60.7
55858;BME280;41779;52.360;31.026;2022-12-18T11:44:42;1035.8;;;-0.8;61.1
55858;BME280;41779;52.360;31.026;2022-12-18T11:49:32;1035.9;;;-0.8;61.4
55858;BME280;41779;52.360;31.026;2022-12-18T11:54:40;1035.9;;;-0.8;61.6
55858;BME280;41779;52.360;31.026;2022-12-18T11:59:55;1036.1;;;-0.8;61.5
55858;BME280;41779;52.360;31.026;2022-12-18T12:04:35;1036.2;;;-0.8;61.5
55858;BME280;41779;52.360;31.026;2022-12-18T12:09:43;1036.2;;;-0.9;61.5
55858;BME280;41779;52.360;31.026;2022-12-18T12:14:44;1036.3;;;-0.9;61.4
55858;BME280;41779;52.360;31.026;2022-12-18T12:19:45;1036.5;;;-0.9;61.3
55858;BME280;41779;52.360;31.026;2022-12-18T12:24:34;1036.6;;;-0.8;61
55858;BME280;41779;52.360;31.026;2022-12-18T12:29:35;1036.8;;;-0.8;60.8
55858;BME280;41779;52.360;31.026;2022-12-18T12:34:54;1036.9;;;-0.7;60.9
55858;BME280;41779;52.360;31.026;2022-12-18T12:39:43;1037;;;-0.7;60.7
55858;BME280;41779;52.360;31.026;2022-12-18T12:44:32;1037.1;;;-0.6;60.7
55858;BME280;41779;52.360;31.026;2022-12-18T12:49:41;1037.1;;;-0.7;60.7
55858;BME280;41779;52.360;31.026;2022-12-18T12:54:31;1037.2;;;-0.8;61
55858;BME280;41779;52.360;31.026;2022-12-18T12:59:41;1037.4;;;-0.8;61.2
55858;BME280;41779;52.360;31.026;2022-12-18T13:04:52;1037.4;;;-0.8;61.4
55858;BME280;41779;52.360;31.026;2022-12-18T13:10:10;1037.5;;;-0.9;61.6
55858;BME280;41779;52.360;31.026;2022-12-18T13:14:41;1037.5;;;-0.9;61.8
55858;BME280;41779;52.360;31.026;2022-12-18T13:20:10;1037.7;;;-1;61.9
55858;BME280;41779;52.360;31.026;2022-12-18T13:24:39;1037.8;;;-1;62
55858;BME280;41779;52.360;31.026;2022-12-18T13:29:46;1037.9;;;-1;62.2
55858;BME280;41779;52.360;31.026;2022-12-18T13:34:31;1038;;;-1;62.3
55858;BME280;41779;52.360;31.026;2022-12-18T13:39:54;1038.1;;;-1;62.5
55858;BME280;41779;52.360;31.026;2022-12-18T13:44:43;1038.3;;;-1.1;62.6
55858;BME280;41779;52.360;31.026;2022-12-18T13:49:33;1038.4;;;-1.1;62.8
55858;BME280;41779;52.360;31.026;2022-12-18T13:54:32;1038.5;;;-1.1;62.8
55858;BME280;41779;52.360;31.026;2022-12-18T13:59:33;1038.6;;;-1.1;62.6
55858;BME280;41779;52.360;31.026;2022-12-18T14:04:31;1038.8;;;-1;62.3
55858;BME280;41779;52.360;31.026;2022-12-18T14:09:51;1038.9;;;-1;61.8
55858;BME280;41779;52.360;31.026;2022-12-18T14:14:31;1039;;;-1;61.5
55858;BME280;41779;52.360;31.026;2022-12-18T14:19:55;1039.1;;;-1;61.3
55858;BME280;41779;52.360;31.026;2022-12-18T14:24:45;1039.3;;;-1.1;61.5
55858;BME280;41779;52.360;31.026;2022-12-18T14:29:55;1039.4;;;-1.1;61.5
55858;BME280;41779;52.360;31.026;2022-12-18T14:34:43;1039.4;;;-1.1;61.4
55858;BME280;41779;52.360;31.026;2022-12-18T14:39:53;1039.5;;;-1.1;61.4
55858;BME280;41779;52.360;31.026;2022-12-18T14:44:31;1039.6;;;-1.2;61.5
55858;BME280;41779;52.360;31.026;2022-12-18T14:49:55;1039.6;;;-1.1;61.5
55858;BME280;41779;52.360;31.026;2022-12-18T14:54:31;1039.7;;;-1;60.9
55858;BME280;41779;52.360;31.026;2022-12-18T14:59:31;1039.8;;;-1;61
55858;BME280;41779;52.360;31.026;2022-12-18T15:04:41;1039.9;;;-1;61.2
55858;BME280;41779;52.360;31.026;2022-12-18T15:09:31;1040;;;-1;61.2
55858;BME280;41779;52.360;31.026;2022-12-18T15:14:55;1040.1;;;-1;61.1
55858;BME280;41779;52.360;31.026;2022-12-18T15:19:41;1040.1;;;-1;61
55858;BME280;41779;52.360;31.026;2022-12-18T15:24:43;1040.2;;;-1.1;61.4
55858;BME280;41779;52.360;31.026;2022-12-18T15:29:31;1040.3;;;-1;61.4
55858;BME280;41779;52.360;31.026;2022-12-18T15:34:31;1040.5;;;-1;61.4
55858;BME280;41779;52.360;31.026;2022-12-18T15:39:51;1040.7;;;-1.1;61.6
55858;BME280;41779;52.360;31.026;2022-12-18T15:44:31;1040.8;;;-1.2;61.5
55858;BME280;41779;52.360;31.026;2022-12-18T15:49:51;1040.9;;;-1.2;61.7
55858;BME280;41779;52.360;31.026;2022-12-18T15:54:41;1040.9;;;-1.3;61.8
55858;BME280;41779;52.360;31.026;2022-12-18T15:59:31;1041.1;;;-1.3;61.8
55858;BME280;41779;52.360;31.026;2022-12-18T16:04:41;1041.2;;;-1.3;61.7
55858;BME280;41779;52.360;31.026;2022-12-18T16:09:43;1041.2;;;-1.4;61.8
55858;BME280;41779;52.360;31.026;2022-12-18T16:14:31;1041.3;;;-1.4;61.6
55858;BME280;41779;52.360;31.026;2022-12-18T16:19:31;1041.4;;;-1.4;61.5
55858;BME280;41779;52.360;31.026;2022-12-18T16:24:41;1041.4;;;-1.5;61.6
55858;BME280;41779;52.360;31.026;2022-12-18T16:29:31;1041.5;;;-1.4;61.4
55858;BME280;41779;52.360;31.026;2022-12-18T16:34:41;1041.6;;;-1.5;61.1
55858;BME280;41779;52.360;31.026;2022-12-18T16:39:41;1041.7;;;-1.4;61
55858;BME280;41779;52.360;31.026;2022-12-18T16:44:41;1041.8;;;-1.4;61
55858;BME280;41779;52.360;31.026;2022-12-18T16:49:31;1041.9;;;-1.4;60.8
55858;BME280;41779;52.360;31.026;2022-12-18T16:54:31;1042.1;;;-1.5;60.8
55858;BME280;41779;52.360;31.026;2022-12-18T16:59:31;1042.2;;;-1.6;61
55858;BME280;41779;52.360;31.026;2022-12-18T17:04:31;1042.3;;;-1.7;61
55858;BME280;41779;52.360;31.026;2022-12-18T17:09:31;1042.4;;;-1.7;60.9
55858;BME280;41779;52.360;31.026;2022-12-18T17:14:31;1042.5;;;-1.9;61
55858;BME280;41779;52.360;31.026;2022-12-18T17:19:31;1042.7;;;-2;61.1
55858;BME280;41779;52.360;31.026;2022-12-18T17:24:29;1042.8;;;-2.1;61.1
55858;BME280;41779;52.360;31.026;2022-12-18T17:29:31;1042.9;;;-2.2;60.8
55858;BME280;41779;52.360;31.026;2022-12-18T17:34:51;1042.9;;;-2.3;60.5
55858;BME280;41779;52.360;31.026;2022-12-18T17:39:31;1043;;;-2.3;60.3
55858;BME280;41779;52.360;31.026;2022-12-18T17:44:41;1043.1;;;-2.4;60.2
55858;BME280;41779;52.360;31.026;2022-12-18T17:49:41;1043.2;;;-2.5;59.9
55858;BME280;41779;52.360;31.026;2022-12-18T17:54:31;1043.3;;;-2.6;59.8
55858;BME280;41779;52.360;31.026;2022-12-18T17:59:41;1043.4;;;-2.7;59.6
55858;BME280;41779;52.360;31.026;2022-12-18T18:04:31;1043.4;;;-2.8;59.3
55858;BME280;41779;52.360;31.026;2022-12-18T18:09:41;1043.5;;;-2.9;58.9
55858;BME280;41779;52.360;31.026;2022-12-18T18:14:32;1043.6;;;-3;58.5
55858;BME280;41779;52.360;31.026;2022-12-18T18:19:41;1043.7;;;-3.1;58.1
55858;BME280;41779;52.360;31.026;2022-12-18T18:24:31;1043.8;;;-3.3;57.8
55858;BME280;41779;52.360;31.026;2022-12-18T18:29:43;1043.8;;;-3.3;57.5
55858;BME280;41779;52.360;31.026;2022-12-18T18:34:31;1043.9;;;-3.4;57.4
55858;BME280;41779;52.360;31.026;2022-12-18T18:39:42;1044;;;-3.4;57.1
55858;BME280;41779;52.360;31.026;2022-12-18T18:44:41;1044;;;-3.4;57.1
55858;BME280;41779;52.360;31.026;2022-12-18T18:49:41;1044.1;;;-3.4;57
55858;BME280;41779;52.360;31.026;2022-12-18T18:54:45;1044.2;;;-3.3;56.8
55858;BME280;41779;52.360;31.026;2022-12-18T18:59:31;1044.3;;;-3.4;56.6
55858;BME280;41779;52.360;31.026;2022-12-18T19:05:17;1044.5;;;-3.5;56.2
55858;BME280;41779;52.360;31.026;2022-12-18T19:09:41;1044.5;;;-3.5;56.2
55858;BME280;41779;52.360;31.026;2022-12-18T19:14:31;1044.5;;;-3.6;55.8
55858;BME280;41779;52.360;31.026;2022-12-18T19:19:31;1044.5;;;-3.6;55.7
55858;BME280;41779;52.360;31.026;2022-12-18T19:24:41;1044.6;;;-3.7;55.7
55858;BME280;41779;52.360;31.026;2022-12-18T19:29:41;1044.7;;;-3.9;55.8
55858;BME280;41779;52.360;31.026;2022-12-18T19:34:41;1044.8;;;-4;56.1
55858;BME280;41779;52.360;31.026;2022-12-18T19:39:41;1044.9;;;-4;56.2
55858;BME280;41779;52.360;31.026;2022-12-18T19:44:41;1045;;;-4;56.1
55858;BME280;41779;52.360;31.026;2022-12-18T19:49:39;1045.1;;;-4;56.2
55858;BME280;41779;52.360;31.026;2022-12-18T19:54:31;1045.2;;;-4.1;56.1
55858;BME280;41779;52.360;31.026;2022-12-18T19:59:41;1045.2;;;-4.1;56
55858;BME280;41779;52.360;31.026;2022-12-18T20:04:31;1045.3;;;-4.2;56.1
55858;BME280;41779;52.360;31.026;2022-12-18T20:09:41;1045.4;;;-4.4;56.2
55858;BME280;41779;52.360;31.026;2022-12-18T20:14:51;1045.3;;;-4.4;56
55858;BME280;41779;52.360;31.026;2022-12-18T20:19:51;1045.4;;;-4.5;56.1
55858;BME280;41779;52.360;31.026;2022-12-18T20:24:31;1045.5;;;-4.5;56.3
55858;BME280;41779;52.360;31.026;2022-12-18T20:29:51;1045.5;;;-4.5;56.5
55858;BME280;41779;52.360;31.026;2022-12-18T20:34:57;1045.6;;;-4.5;57.2
55858;BME280;41779;52.360;31.026;2022-12-18T20:39:53;1045.7;;;-4.5;57.7
55858;BME280;41779;52.360;31.026;2022-12-18T20:44:31;1045.7;;;-4.5;58.2
55858;BME280;41779;52.360;31.026;2022-12-18T20:49:41;1045.7;;;-4.5;58.8
55858;BME280;41779;52.360;31.026;2022-12-18T20:54:41;1045.7;;;-4.4;58.9
55858;BME280;41779;52.360;31.026;2022-12-18T20:59:43;1045.9;;;-4.4;58.9
55858;BME280;41779;52.360;31.026;2022-12-18T21:04:31;1046;;;-4.4;59.2
55858;BME280;41779;52.360;31.026;2022-12-18T21:09:41;1046.1;;;-4.3;59.3
55858;BME280;41779;52.360;31.026;2022-12-18T21:14:31;1046.2;;;-4.2;59.2
55858;BME280;41779;52.360;31.026;2022-12-18T21:19:31;1046.3;;;-4.1;59.1
55858;BME280;41779;52.360;31.026;2022-12-18T21:24:53;1046.3;;;-4;59.1
55858;BME280;41779;52.360;31.026;2022-12-18T21:29:41;1046.3;;;-4;59.2
55858;BME280;41779;52.360;31.026;2022-12-18T21:34:43;1046.4;;;-3.8;59.3
55858;BME280;41779;52.360;31.026;2022-12-18T21:39:51;1046.4;;;-3.7;59.5
55858;BME280;41779;52.360;31.026;2022-12-18T21:44:31;1046.4;;;-3.6;59.6
55858;BME280;41779;52.360;31.026;2022-12-18T21:49:29;1046.3;;;-3.5;59.6
55858;BME280;41779;52.360;31.026;2022-12-18T21:54:47;1046.4;;;-3.4;59.3
55858;BME280;41779;52.360;31.026;2022-12-18T21:59:38;1046.4;;;-3.4;59.2
55858;BME280;41779;52.360;31.026;2022-12-18T22:04:27;1046.3;;;-3.3;59.2
55858;BME280;41779;52.360;31.026;2022-12-18T22:09:27;1046.3;;;-3.2;59.1
55858;BME280;41779;52.360;31.026;2022-12-18T22:14:37;1046.4;;;-3.1;59
55858;BME280;41779;52.360;31.026;2022-12-18T22:19:27;1046.4;;;-3.1;59.1
55858;BME280;41779;52.360;31.026;2022-12-18T22:24:27;1046.5;;;-3;59.2
55858;BME280;41779;52.360;31.026;2022-12-18T22:29:37;1046.5;;;-2.9;59.3
55858;BME280;41779;52.360;31.026;2022-12-18T22:34:27;1046.5;;;-2.9;59.3
55858;BME280;41779;52.360;31.026;2022-12-18T22:39:37;1046.5;;;-2.8;59.4
55858;BME280;41779;52.360;31.026;2022-12-18T22:44:47;1046.5;;;-2.8;59.6
55858;BME280;41779;52.360;31.026;2022-12-18T22:49:27;1046.6;;;-2.7;60
55858;BME280;41779;52.360;31.026;2022-12-18T22:54:27;1046.6;;;-2.6;60.1
55858;BME280;41779;52.360;31.026;2022-12-18T22:59:27;1046.6;;;-2.5;60.2
55858;BME280;41779;52.360;31.026;2022-12-18T23:04:27;1046.6;;;-2.3;60.3
55858;BME280;41779;52.360;31.026;2022-12-18T23:09:27;1046.6;;;-2.3;60.4
55858;BME280;41779;52.360;31.026;2022-12-18T23:14:49;1046.7;;;-2.3;60.6
55858;BME280;41779;52.360;31.026;2022-12-18T23:19:27;1046.7;;;-2.2;60.9
55858;BME280;41779;52.360;31.026;2022-12-18T23:24:47;1046.7;;;-2.2;61
55858;BME280;41779;52.360;31.026;2022-12-18T23:29:41;1046.8;;;-2.2;61.3
55858;BME280;41779;52.360;31.026;2022-12-18T23:34:27;1046.8;;;-2.2;61.7
55858;BME280;41779;52.360;31.026;2022-12-18T23:39:27;1046.8;;;-2.2;62
55858;BME280;41779;52.360;31.026;2022-12-18T23:44:27;1046.8;;;-2.1;61.8
55858;BME280;41779;52.360;31.026;2022-12-18T23:49:37;1046.9;;;-2;61.8
55858;BME280;41779;52.360;31.026;2022-12-18T23:54:37;1046.9;;;-2;61.8
55858;BME280;41779;52.360;31.026;2022-12-18T23:59:51;1047;;;-2;61.4
